Chièvres Air Base

EBCV · Hainaut, Wallonia, 比利时

罗盘
风向 的 风向 350° Chièvres Air Base 8/26
风: 5 kt, 2 beaufort


5 kt
改变
0 ft 5.000 10.000 15.000 20.000
Cloud Cloud
FEW 8.000
Cloud Cloud Cloud Cloud Cloud Cloud
BKN 9.500
Cloud Cloud Cloud Cloud Cloud Cloud Cloud Cloud
OVC 11.000
METAR EBCV 252055Z AUTO 35005KT 9999 FEW080/// BKN095/// OVC110/// 20/17 Q1012 BLU

METAR Chièvres Air Base - EBCV

Chièvres Air Base是,比利时中的中型机场。 该机场位于纬度50,57675和经度3,83873。 该机场有一条跑道: 8/26. 本场的ICAO机场代码为EBCV。 机场在Bruxelles FIR中。

该航空气象观测是针对Chièvres Air Base在2024年6月25日 22:55, 当地时间进行的。

机场观察

风向为350°,速度为5 kt。

可见度为10 km 或者更多。

有几云在8.000 ft的高度, 碎云在9.500 ft的高度 和 乌云密布在11.000 ft的高度。 破损或更高的上限为9.500 ft。

温度和风寒是20 °C。 露点为17 °C,相对湿度为83%。 海平面上的气压为1012 hPa (QNH)。

白天

今天,太阳从05:33升起,在22:01降落。 这适用于Chièvres Air Base,世界夏令时可能有所不同。 当地时间与世界标准时间之间的时差为+2 小时。 夏令时目前正在进行中。

公司介绍

我们没有关于这个机场的公司信息。

体会

到Vliegles.nl去找飞行课程,跳伞和其他飞行体验。 浏览页面,了解Chièvres Air Base附近所有可用的活动。 你也可以使用搜索功能来寻找你所在地附近的特定飞行课程、跳伞或其他飞行体验。

跑道

Id 标题 侧风 逆风 侧风 %
8/26 080°-260° 5 kt 100 %

逆风成分最大的方向会被突出显示,并用于横风计算。 这并不一定意味着这个方向在使用。

乌云

8.000 ft FEW 几云
9.500 ft BKN 碎云
11.000 ft OVC 乌云密布

温度 & 天气

温度 20 °C
露点 17 °C
相对湿度 83%
Kp-index 0 (0-9)

白天

日出
05:33 (5:56)
中午
13:47
日落
22:01

小工具

你想在你的网站上有一个关于Chièvres Air Base的当前航空天气(METAR)的小部件吗?

显示HTML代码
报告变更